createdAt,value
2018-07-15T00:00:32.113Z,0.00
2018-07-15T00:01:32.170Z,0.00
2018-07-15T00:02:32.230Z,0.00
2018-07-15T00:03:32.290Z,0.00
2018-07-15T00:04:32.358Z,0.00
2018-07-15T00:05:32.412Z,0.00
2018-07-15T00:06:32.472Z,0.00
2018-07-15T00:07:32.532Z,0.00
2018-07-15T00:08:32.593Z,0.00
2018-07-15T00:09:32.654Z,0.00
2018-07-15T00:10:32.715Z,0.00
2018-07-15T00:11:33.029Z,0.00
2018-07-15T00:12:32.834Z,0.00
2018-07-15T00:13:32.896Z,0.00
2018-07-15T00:14:32.957Z,0.00
2018-07-15T00:15:33.019Z,0.00
2018-07-15T00:16:33.078Z,0.00
2018-07-15T00:17:33.144Z,0.00
2018-07-15T00:18:33.199Z,0.00
2018-07-15T00:19:33.259Z,0.00
2018-07-15T00:20:33.320Z,0.00
2018-07-15T00:21:33.381Z,0.00
2018-07-15T00:22:33.443Z,0.00
2018-07-15T00:23:33.502Z,0.00
2018-07-15T00:24:33.562Z,0.00
2018-07-15T00:25:33.623Z,0.00
2018-07-15T00:26:33.685Z,0.00
2018-07-15T00:27:33.743Z,0.00
2018-07-15T00:28:33.805Z,0.00
2018-07-15T00:29:33.865Z,0.00
2018-07-15T00:30:33.927Z,0.00
2018-07-15T00:31:33.985Z,0.00
2018-07-15T00:32:34.046Z,0.00
2018-07-15T00:33:34.107Z,0.00
2018-07-15T00:34:34.168Z,0.00
2018-07-15T00:35:34.227Z,0.00
2018-07-15T00:36:34.540Z,0.00
2018-07-15T00:37:34.348Z,0.00
2018-07-15T00:38:34.408Z,0.00
2018-07-15T00:39:34.469Z,0.00
2018-07-15T00:40:34.530Z,0.00
2018-07-15T00:41:34.591Z,0.00
2018-07-15T00:42:34.654Z,0.00
2018-07-15T00:43:34.709Z,0.00
2018-07-15T00:44:34.772Z,0.00
2018-07-15T00:45:34.835Z,0.00
2018-07-15T00:46:34.891Z,0.00
2018-07-15T00:47:34.951Z,0.00
2018-07-15T00:48:35.012Z,0.00
2018-07-15T00:49:35.072Z,0.00
2018-07-15T00:50:35.133Z,0.00
2018-07-15T00:51:35.443Z,0.00
2018-07-15T00:52:35.256Z,0.00
2018-07-15T00:53:35.313Z,0.00
2018-07-15T00:54:35.374Z,0.00
2018-07-15T00:55:35.434Z,0.00
2018-07-15T00:56:35.494Z,0.00
2018-07-15T00:57:35.554Z,0.00
2018-07-15T00:58:35.615Z,0.00
2018-07-15T00:59:35.676Z,0.00
2018-07-15T01:00:35.735Z,0.00
2018-07-15T01:01:35.797Z,0.00
2018-07-15T01:02:35.857Z,0.00
2018-07-15T01:03:35.916Z,0.00
2018-07-15T01:04:35.976Z,0.00
2018-07-15T01:05:36.037Z,0.00
2018-07-15T01:06:36.097Z,0.00
2018-07-15T01:07:36.160Z,0.00
2018-07-15T01:08:36.217Z,0.00
2018-07-15T01:09:36.278Z,0.00
2018-07-15T01:10:36.338Z,0.00
2018-07-15T01:11:36.398Z,0.00
2018-07-15T01:12:36.459Z,0.00
2018-07-15T01:13:36.520Z,0.00
2018-07-15T01:14:36.579Z,0.00
2018-07-15T01:15:36.638Z,0.00
2018-07-15T01:16:36.699Z,0.00
2018-07-15T01:17:36.759Z,0.00
2018-07-15T01:18:36.822Z,0.00
2018-07-15T01:19:36.878Z,0.00
2018-07-15T01:20:36.942Z,0.00
2018-07-15T01:21:36.999Z,0.00
2018-07-15T01:22:37.061Z,0.00
2018-07-15T01:23:37.119Z,0.00
2018-07-15T01:24:37.179Z,0.00
2018-07-15T01:25:37.240Z,0.00
2018-07-15T01:26:37.300Z,0.00
2018-07-15T01:27:37.359Z,0.00
2018-07-15T01:28:37.434Z,0.00
2018-07-15T01:29:37.481Z,0.00
2018-07-15T01:30:37.542Z,0.00
2018-07-15T01:31:37.600Z,0.00
2018-07-15T01:32:37.661Z,0.00
2018-07-15T01:33:37.720Z,0.00
2018-07-15T01:34:37.780Z,0.00
2018-07-15T01:35:38.274Z,0.00
2018-07-15T01:36:37.900Z,0.00
2018-07-15T01:37:37.961Z,0.00
2018-07-15T01:38:38.021Z,0.00
2018-07-15T01:39:38.081Z,0.00
2018-07-15T01:40:38.142Z,0.00
2018-07-15T01:41:38.201Z,0.00
2018-07-15T01:42:38.262Z,0.00
2018-07-15T01:43:38.321Z,0.00
2018-07-15T01:44:38.381Z,0.00
2018-07-15T01:45:38.441Z,0.00
2018-07-15T01:46:38.501Z,0.00
2018-07-15T01:47:38.560Z,0.00
2018-07-15T01:48:38.621Z,0.00
2018-07-15T01:49:38.682Z,0.00
2018-07-15T01:50:38.754Z,0.00
2018-07-15T01:51:38.801Z,0.00
2018-07-15T01:52:38.862Z,0.00
2018-07-15T01:53:38.920Z,0.00
2018-07-15T01:54:38.981Z,0.00
2018-07-15T01:55:39.041Z,0.00
2018-07-15T01:56:39.101Z,0.00
2018-07-15T01:57:39.160Z,0.00
2018-07-15T01:58:39.222Z,0.00
2018-07-15T01:59:39.280Z,0.00
2018-07-15T02:00:39.342Z,0.00
2018-07-15T02:01:39.401Z,0.00
2018-07-15T02:02:39.461Z,0.00
2018-07-15T02:03:39.524Z,0.00
2018-07-15T02:04:39.580Z,0.00
2018-07-15T02:05:39.640Z,0.00
2018-07-15T02:06:39.701Z,0.00
2018-07-15T02:07:39.759Z,0.00
2018-07-15T02:08:39.820Z,0.00
2018-07-15T02:09:39.882Z,0.00
2018-07-15T02:10:39.940Z,0.00
2018-07-15T02:11:40.007Z,0.00
2018-07-15T02:12:40.060Z,0.00
2018-07-15T02:13:40.120Z,0.00
2018-07-15T02:14:40.180Z,0.00
2018-07-15T02:15:40.239Z,0.00
2018-07-15T02:16:40.300Z,0.00
2018-07-15T02:17:40.359Z,0.00
2018-07-15T02:18:40.440Z,0.00
2018-07-15T02:19:40.483Z,0.00
2018-07-15T02:20:40.540Z,0.00
2018-07-15T02:21:40.600Z,0.00
2018-07-15T02:22:40.660Z,0.00
2018-07-15T02:23:40.719Z,0.00
2018-07-15T02:24:40.778Z,0.00
2018-07-15T02:25:40.840Z,0.00
2018-07-15T02:26:40.899Z,0.00
2018-07-15T02:27:40.958Z,0.00
2018-07-15T02:28:41.019Z,0.00
2018-07-15T02:29:41.080Z,0.00
2018-07-15T02:30:41.140Z,0.00
2018-07-15T02:31:41.198Z,0.00
2018-07-15T02:32:41.260Z,0.00
2018-07-15T02:33:41.321Z,0.00
2018-07-15T02:34:41.379Z,0.00
2018-07-15T02:35:41.438Z,0.00
2018-07-15T02:36:41.511Z,0.00
2018-07-15T02:37:41.558Z,0.00
2018-07-15T02:38:41.618Z,0.00
2018-07-15T02:39:41.677Z,0.00
2018-07-15T02:40:41.738Z,0.00
2018-07-15T02:41:41.802Z,0.00
2018-07-15T02:42:41.858Z,0.00
2018-07-15T02:43:41.917Z,0.00
2018-07-15T02:44:41.982Z,0.00
2018-07-15T02:45:42.038Z,0.00
2018-07-15T02:46:42.098Z,0.00
2018-07-15T02:47:42.157Z,0.00
2018-07-15T02:48:42.219Z,0.00
2018-07-15T02:49:42.278Z,0.00
2018-07-15T02:50:42.360Z,0.00
2018-07-15T02:51:42.397Z,0.00
2018-07-15T02:52:42.456Z,0.00
2018-07-15T02:53:42.517Z,0.00
2018-07-15T02:54:42.579Z,0.00
2018-07-15T02:55:42.637Z,4.00
2018-07-15T02:56:42.697Z,4.00
2018-07-15T02:57:42.766Z,4.00
2018-07-15T02:58:42.816Z,0.00
2018-07-15T02:59:42.879Z,0.00
2018-07-15T03:00:42.935Z,4.00
2018-07-15T03:01:43.009Z,4.00
2018-07-15T03:02:43.056Z,4.00
2018-07-15T03:03:43.122Z,4.00
2018-07-15T03:04:43.175Z,4.00
2018-07-15T03:05:43.235Z,8.00
2018-07-15T03:06:43.295Z,4.00
2018-07-15T03:07:43.354Z,8.00
2018-07-15T03:08:43.415Z,8.00
2018-07-15T03:09:43.476Z,8.00
2018-07-15T03:10:43.535Z,12.00
2018-07-15T03:11:43.599Z,12.00
2018-07-15T03:12:43.653Z,16.00
2018-07-15T03:13:43.717Z,20.00
2018-07-15T03:14:43.925Z,20.00
2018-07-15T03:15:43.835Z,24.00
2018-07-15T03:16:43.894Z,28.00
2018-07-15T03:17:43.954Z,28.00
2018-07-15T03:18:44.014Z,36.00
2018-07-15T03:19:44.073Z,36.00
2018-07-15T03:20:44.133Z,40.00
2018-07-15T03:21:44.193Z,48.00
2018-07-15T03:22:44.252Z,56.00
2018-07-15T03:23:44.311Z,60.00
2018-07-15T03:24:44.372Z,68.00
2018-07-15T03:25:44.432Z,76.00
2018-07-15T03:26:44.492Z,84.00
2018-07-15T03:27:44.549Z,96.00
2018-07-15T03:28:44.611Z,104.00
2018-07-15T03:29:44.671Z,116.00
2018-07-15T03:30:44.729Z,128.00
2018-07-15T03:31:44.793Z,140.00
2018-07-15T03:32:44.849Z,156.00
2018-07-15T03:33:44.908Z,168.00
2018-07-15T03:34:45.119Z,180.00
2018-07-15T03:35:45.028Z,200.00
2018-07-15T03:36:45.090Z,216.00
2018-07-15T03:37:45.147Z,232.00
2018-07-15T03:38:45.207Z,252.00
2018-07-15T03:39:45.305Z,272.00
2018-07-15T03:40:45.327Z,296.00
2018-07-15T03:41:45.388Z,316.00
2018-07-15T03:42:45.448Z,336.00
2018-07-15T03:43:45.507Z,360.00
2018-07-15T03:44:45.564Z,380.00
2018-07-15T03:45:45.625Z,408.00
2018-07-15T03:46:45.684Z,432.00
2018-07-15T03:47:45.743Z,460.00
2018-07-15T03:48:45.803Z,488.00
2018-07-15T03:49:45.864Z,516.00
2018-07-15T03:50:45.923Z,544.00
2018-07-15T03:51:45.981Z,572.00
2018-07-15T03:52:46.042Z,604.00
2018-07-15T03:53:46.101Z,632.00
2018-07-15T03:54:46.412Z,664.00
2018-07-15T03:55:46.220Z,692.00
2018-07-15T03:56:46.283Z,728.00
2018-07-15T03:57:46.341Z,760.00
2018-07-15T03:58:46.400Z,796.00
2018-07-15T03:59:46.459Z,828.00
2018-07-15T04:00:46.582Z,860.00
2018-07-15T04:01:46.578Z,896.00
2018-07-15T04:02:46.642Z,928.00
2018-07-15T04:03:46.697Z,964.00
2018-07-15T04:04:46.756Z,1004.00
2018-07-15T04:05:46.817Z,1036.00
2018-07-15T04:06:46.923Z,1080.00
2018-07-15T04:07:46.935Z,1120.00
2018-07-15T04:08:47.244Z,1156.00
2018-07-15T04:09:47.055Z,1196.00
2018-07-15T04:10:47.115Z,1236.00
2018-07-15T04:11:47.176Z,1276.00
2018-07-15T04:12:47.233Z,1312.00
2018-07-15T04:13:47.295Z,1352.00
2018-07-15T04:14:47.354Z,1392.00
2018-07-15T04:15:47.413Z,1432.00
2018-07-15T04:16:47.474Z,1472.00
2018-07-15T04:17:47.532Z,1508.00
2018-07-15T04:18:47.591Z,1552.00
2018-07-15T04:19:47.650Z,1592.00
2018-07-15T04:20:47.711Z,1636.00
2018-07-15T04:21:47.770Z,1676.00
2018-07-15T04:22:47.830Z,1720.00
2018-07-15T04:23:47.889Z,1760.00
2018-07-15T04:24:47.949Z,1804.00
2018-07-15T04:25:48.009Z,1852.00
2018-07-15T04:26:48.069Z,1896.00
2018-07-15T04:27:48.128Z,1944.00
2018-07-15T04:28:48.189Z,1984.00
2018-07-15T04:29:48.249Z,2032.00
2018-07-15T04:30:48.309Z,2080.00
2018-07-15T04:31:48.367Z,2128.00
2018-07-15T04:32:48.426Z,2176.00
2018-07-15T04:33:48.486Z,2224.00
2018-07-15T04:34:48.547Z,2268.00
2018-07-15T04:35:48.604Z,2316.00
2018-07-15T04:36:48.666Z,2352.00
2018-07-15T04:37:48.753Z,2392.00
2018-07-15T04:38:48.785Z,2432.00
2018-07-15T04:39:48.843Z,2472.00
2018-07-15T04:40:48.904Z,2520.00
2018-07-15T04:41:48.963Z,2552.00
2018-07-15T04:42:49.023Z,2584.00
2018-07-15T04:43:49.111Z,2608.00
2018-07-15T04:44:49.141Z,2628.00
2018-07-15T04:45:49.203Z,2668.00
2018-07-15T04:46:49.261Z,2700.00
2018-07-15T04:47:49.321Z,2724.00
2018-07-15T04:48:49.381Z,2740.00
2018-07-15T04:49:49.440Z,2752.00
2018-07-15T04:50:49.501Z,2768.00
2018-07-15T04:51:49.559Z,2788.00
2018-07-15T04:52:49.619Z,2796.00
2018-07-15T04:53:49.680Z,2816.00
2018-07-15T04:54:49.739Z,2844.00
2018-07-15T04:55:49.798Z,2864.00
2018-07-15T04:56:49.858Z,2884.00
2018-07-15T04:57:49.918Z,2904.00
2018-07-15T04:58:49.978Z,2932.00
2018-07-15T04:59:50.038Z,2960.00
2018-07-15T05:00:50.247Z,3000.00
2018-07-15T05:01:50.159Z,3048.00
2018-07-15T05:02:50.223Z,3092.00
2018-07-15T05:03:50.277Z,3136.00
2018-07-15T05:04:50.336Z,3180.00
2018-07-15T05:05:50.397Z,3232.00
2018-07-15T05:06:50.458Z,3284.00
2018-07-15T05:07:50.516Z,3348.00
2018-07-15T05:08:50.581Z,3424.00
2018-07-15T05:09:50.637Z,3468.00
2018-07-15T05:10:50.697Z,3524.00
2018-07-15T05:11:50.755Z,3564.00
2018-07-15T05:12:50.817Z,3640.00
2018-07-15T05:13:50.875Z,3724.00
2018-07-15T05:14:50.936Z,3812.00
2018-07-15T05:15:50.996Z,3876.00
2018-07-15T05:16:51.056Z,3904.00
2018-07-15T05:17:51.115Z,3924.00
2018-07-15T05:18:51.177Z,3936.00
2018-07-15T05:19:51.235Z,3956.00
2018-07-15T05:20:51.448Z,3976.00
2018-07-15T05:21:51.356Z,3996.00
2018-07-15T05:22:51.416Z,4020.00
2018-07-15T05:23:51.476Z,4056.00
2018-07-15T05:24:51.599Z,4088.00
2018-07-15T05:25:51.599Z,4124.00
2018-07-15T05:26:51.658Z,4152.00
2018-07-15T05:27:51.717Z,4180.00
2018-07-15T05:28:51.777Z,4208.00
2018-07-15T05:29:51.837Z,4240.00
2018-07-15T05:30:51.898Z,4276.00
2018-07-15T05:31:51.958Z,4308.00
2018-07-15T05:32:52.022Z,4340.00
2018-07-15T05:33:52.079Z,4372.00
2018-07-15T05:34:52.208Z,4408.00
2018-07-15T05:35:52.200Z,4440.00
2018-07-15T05:36:52.260Z,4460.00
2018-07-15T05:37:52.323Z,4484.00
2018-07-15T05:38:52.384Z,4516.00
2018-07-15T05:39:52.442Z,4540.00
2018-07-15T05:40:52.503Z,4572.00
2018-07-15T05:41:52.565Z,4608.00
2018-07-15T05:42:52.625Z,4648.00
2018-07-15T05:43:52.685Z,4672.00
2018-07-15T05:44:52.746Z,4700.00
2018-07-15T05:45:52.806Z,4724.00
2018-07-15T05:46:52.867Z,4748.00
2018-07-15T05:47:52.927Z,4776.00
2018-07-15T05:48:52.989Z,4812.00
2018-07-15T05:49:53.049Z,4844.00
2018-07-15T05:50:53.110Z,4876.00
2018-07-15T05:51:53.221Z,4900.00
2018-07-15T05:52:53.231Z,4928.00
2018-07-15T05:53:53.297Z,4956.00
2018-07-15T05:54:53.353Z,4988.00
2018-07-15T05:55:53.417Z,5016.00
2018-07-15T05:56:53.476Z,5056.00
2018-07-15T05:57:53.589Z,5096.00
2018-07-15T05:58:53.597Z,5140.00
2018-07-15T05:59:53.661Z,5176.00
2018-07-15T06:00:53.969Z,5212.00
2018-07-15T06:01:53.780Z,5236.00
2018-07-15T06:02:53.841Z,5260.00
2018-07-15T06:03:53.901Z,5284.00
2018-07-15T06:04:53.962Z,5292.00
2018-07-15T06:05:54.024Z,5308.00
2018-07-15T06:06:54.085Z,5328.00
2018-07-15T06:07:54.147Z,5356.00
2018-07-15T06:08:54.214Z,5372.00
2018-07-15T06:09:54.267Z,5404.00
2018-07-15T06:10:54.329Z,5428.00
2018-07-15T06:11:54.394Z,5468.00
2018-07-15T06:12:54.451Z,5496.00
2018-07-15T06:13:54.514Z,5524.00
2018-07-15T06:14:54.575Z,5556.00
2018-07-15T06:15:54.638Z,5584.00
2018-07-15T06:16:54.695Z,5616.00
2018-07-15T06:17:54.757Z,5644.00
2018-07-15T06:18:54.817Z,5692.00
2018-07-15T06:19:54.894Z,5700.00
2018-07-15T06:20:54.939Z,5736.00
2018-07-15T06:21:55.002Z,5776.00
2018-07-15T06:22:55.063Z,5804.00
2018-07-15T06:23:55.124Z,5832.00
2018-07-15T06:24:55.185Z,5856.00
2018-07-15T06:25:55.247Z,5876.00
2018-07-15T06:26:55.307Z,5896.00
2018-07-15T06:27:55.368Z,5916.00
2018-07-15T06:28:55.430Z,5952.00
2018-07-15T06:29:55.491Z,5988.00
2018-07-15T06:30:55.557Z,6024.00
2018-07-15T06:31:55.738Z,6060.00
2018-07-15T06:32:55.675Z,6096.00
2018-07-15T06:33:55.737Z,6124.00
2018-07-15T06:34:55.800Z,6156.00
2018-07-15T06:35:56.010Z,6192.00
2018-07-15T06:36:55.922Z,6236.00
2018-07-15T06:37:55.983Z,6276.00
2018-07-15T06:38:56.045Z,6312.00
2018-07-15T06:39:56.105Z,6328.00
2018-07-15T06:40:56.167Z,6340.00
2018-07-15T06:41:56.230Z,6344.00
2018-07-15T06:42:56.291Z,6348.00
2018-07-15T06:43:56.353Z,6360.00
2018-07-15T06:44:56.414Z,6376.00
2018-07-15T06:45:56.476Z,6396.00
2018-07-15T06:46:56.538Z,6420.00
2018-07-15T06:47:56.600Z,6432.00
2018-07-15T06:48:56.661Z,6432.00
2018-07-15T06:49:56.744Z,6440.00
2018-07-15T06:50:56.786Z,6452.00
2018-07-15T06:51:56.848Z,6464.00
2018-07-15T06:52:56.917Z,6456.00
2018-07-15T06:53:57.036Z,6460.00
2018-07-15T06:54:57.034Z,6472.00
2018-07-15T06:55:57.152Z,6488.00
2018-07-15T06:56:57.158Z,6500.00
2018-07-15T06:57:57.220Z,6520.00
2018-07-15T06:58:57.288Z,6540.00
2018-07-15T06:59:57.345Z,6552.00
2018-07-15T07:00:57.406Z,6568.00
2018-07-15T07:01:57.469Z,6592.00
2018-07-15T07:02:57.531Z,6616.00
2018-07-15T07:03:58.209Z,6648.00
2018-07-15T07:04:57.657Z,6688.00
2018-07-15T07:05:57.718Z,6732.00
2018-07-15T07:06:57.780Z,6768.00
2018-07-15T07:07:57.843Z,6812.00
2018-07-15T07:08:57.906Z,6860.00
2018-07-15T07:09:57.971Z,6916.00
2018-07-15T07:10:58.031Z,6964.00
2018-07-15T07:11:58.092Z,7008.00
2018-07-15T07:12:58.155Z,7048.00
2018-07-15T07:13:58.219Z,7088.00
2018-07-15T07:14:58.281Z,7116.00
2018-07-15T07:15:58.343Z,7136.00
2018-07-15T07:16:58.406Z,7160.00
2018-07-15T07:17:58.469Z,7200.00
2018-07-15T07:18:58.534Z,7248.00
2018-07-15T07:19:58.597Z,7284.00
2018-07-15T07:20:58.658Z,7328.00
2018-07-15T07:21:58.720Z,7356.00
2018-07-15T07:22:58.784Z,7380.00
2018-07-15T07:23:58.845Z,7404.00
2018-07-15T07:24:58.909Z,7460.00
2018-07-15T07:25:58.972Z,7528.00
2018-07-15T07:26:59.036Z,7604.00
2018-07-15T07:27:59.098Z,7692.00
2018-07-15T07:28:59.163Z,7812.00
2018-07-15T07:29:59.225Z,7936.00
2018-07-15T07:30:59.288Z,8040.00
2018-07-15T07:31:59.350Z,8132.00
2018-07-15T07:32:59.414Z,8284.00
2018-07-15T07:33:59.477Z,8468.00
2018-07-15T07:34:59.542Z,8600.00
2018-07-15T07:35:59.605Z,8744.00
2018-07-15T07:36:59.667Z,8968.00
2018-07-15T07:37:59.731Z,9252.00
2018-07-15T07:38:59.798Z,9864.00
2018-07-15T07:39:59.862Z,10936.00
2018-07-15T07:40:59.922Z,12276.00
2018-07-15T07:41:59.986Z,13508.00
2018-07-15T07:43:00.050Z,14132.00
2018-07-15T07:44:00.112Z,14484.00
2018-07-15T07:45:00.178Z,14320.00
2018-07-15T07:46:00.243Z,13832.00
2018-07-15T07:47:00.344Z,13440.00
2018-07-15T07:48:00.369Z,13136.00
2018-07-15T07:49:00.435Z,12912.00
2018-07-15T07:50:00.497Z,13080.00
2018-07-15T07:51:00.561Z,12976.00
2018-07-15T07:52:43.068Z,13236.00
2018-07-15T07:53:43.132Z,12884.00
2018-07-15T07:54:43.197Z,12576.00
2018-07-15T07:55:43.262Z,12228.00
2018-07-15T07:56:43.327Z,11912.00
2018-07-15T07:57:43.391Z,11844.00
2018-07-15T07:58:43.457Z,11856.00
2018-07-15T07:59:43.521Z,12176.00
2018-07-15T08:00:43.585Z,11972.00
2018-07-15T08:01:43.650Z,11584.00
2018-07-15T08:02:43.716Z,11640.00
2018-07-15T08:03:43.783Z,12004.00
2018-07-15T08:04:43.845Z,11628.00
2018-07-15T08:05:43.910Z,11548.00
2018-07-15T08:06:43.981Z,11320.00
2018-07-15T08:07:44.059Z,11404.00
2018-07-15T08:08:44.110Z,11296.00
2018-07-15T08:09:44.168Z,11016.00
2018-07-15T08:10:44.235Z,10928.00
2018-07-15T08:11:44.449Z,11188.00
2018-07-15T08:12:44.363Z,11988.00
2018-07-15T08:13:44.428Z,12828.00
2018-07-15T08:14:44.494Z,13640.00
2018-07-15T08:15:44.559Z,14496.00
2018-07-15T08:16:44.624Z,15600.00
2018-07-15T08:17:44.688Z,16544.00
2018-07-15T08:18:44.753Z,16588.00
2018-07-15T08:19:44.819Z,16584.00
2018-07-15T08:20:44.883Z,16684.00
2018-07-15T08:21:44.957Z,16660.00
2018-07-15T08:22:45.015Z,16680.00
2018-07-15T08:23:45.080Z,16640.00
2018-07-15T08:24:45.162Z,16752.00
2018-07-15T08:25:45.210Z,16988.00
2018-07-15T08:26:45.277Z,17140.00
2018-07-15T08:27:45.342Z,17176.00
2018-07-15T08:28:45.416Z,17440.00
2018-07-15T08:29:45.486Z,17836.00
2018-07-15T08:30:45.538Z,18208.00
2018-07-15T08:31:45.605Z,18176.00
2018-07-15T08:32:45.670Z,18016.00
2018-07-15T08:33:45.736Z,17532.00
2018-07-15T08:34:45.864Z,17012.00
2018-07-15T08:35:45.869Z,16660.00
2018-07-15T08:36:45.935Z,16728.00
2018-07-15T08:37:46.001Z,16956.00
2018-07-15T08:38:46.072Z,17332.00
2018-07-15T08:39:46.135Z,17888.00
2018-07-15T08:40:46.264Z,18368.00
2018-07-15T08:41:46.266Z,18656.00
2018-07-15T08:42:46.336Z,18592.00
2018-07-15T08:43:46.401Z,18272.00
2018-07-15T08:44:46.466Z,17552.00
2018-07-15T08:45:46.533Z,16924.00
2018-07-15T08:46:46.600Z,16448.00
2018-07-15T08:47:46.720Z,16044.00
2018-07-15T08:48:46.732Z,15596.00
2018-07-15T08:49:46.798Z,15136.00
2018-07-15T08:50:46.866Z,14800.00
2018-07-15T08:51:46.933Z,14572.00
2018-07-15T08:52:46.999Z,14448.00
2018-07-15T08:53:47.067Z,14252.00
2018-07-15T08:54:47.191Z,13812.00
2018-07-15T08:55:47.508Z,13048.00
2018-07-15T08:56:47.265Z,12096.00
2018-07-15T08:57:47.332Z,11148.00
2018-07-15T08:58:47.399Z,10788.00
2018-07-15T08:59:47.465Z,10716.00
2018-07-15T09:00:47.532Z,10680.00
2018-07-15T09:01:47.598Z,10584.00
2018-07-15T09:02:47.665Z,10400.00
2018-07-15T09:03:47.733Z,10452.00
2018-07-15T09:04:47.797Z,10508.00
2018-07-15T09:05:47.865Z,10740.00
2018-07-15T09:06:47.932Z,11104.00
2018-07-15T09:07:47.997Z,10944.00
2018-07-15T09:08:48.064Z,10592.00
2018-07-15T09:09:48.129Z,10392.00
2018-07-15T09:10:48.197Z,10336.00
2018-07-15T09:11:48.266Z,10464.00
2018-07-15T09:12:48.362Z,10460.00
2018-07-15T09:13:48.396Z,10484.00
2018-07-15T09:14:48.462Z,10524.00
2018-07-15T09:15:48.529Z,10568.00
2018-07-15T09:16:48.594Z,10596.00
2018-07-15T09:17:48.662Z,10600.00
2018-07-15T09:18:48.727Z,10600.00
2018-07-15T09:19:48.793Z,10612.00
2018-07-15T09:20:48.858Z,10632.00
2018-07-15T09:21:48.983Z,10636.00
2018-07-15T09:22:48.990Z,10664.00
2018-07-15T09:23:49.057Z,10724.00
2018-07-15T09:24:49.122Z,10776.00
2018-07-15T09:25:49.189Z,10844.00
2018-07-15T09:26:49.256Z,10896.00
2018-07-15T09:27:49.385Z,10920.00
2018-07-15T09:28:49.387Z,10972.00
2018-07-15T09:29:49.454Z,11012.00
2018-07-15T09:30:49.520Z,11056.00
2018-07-15T09:31:49.589Z,11128.00
2018-07-15T09:32:49.656Z,11196.00
2018-07-15T09:33:49.719Z,11308.00
2018-07-15T09:34:49.786Z,11444.00
2018-07-15T09:35:49.853Z,11584.00
2018-07-15T09:36:49.919Z,11704.00
2018-07-15T09:37:49.984Z,11800.00
2018-07-15T09:38:50.050Z,11868.00
2018-07-15T09:39:50.118Z,11928.00
2018-07-15T09:40:50.183Z,11996.00
2018-07-15T09:41:50.250Z,12068.00
2018-07-15T09:42:50.322Z,12148.00
2018-07-15T09:43:50.383Z,12244.00
2018-07-15T09:44:50.449Z,12348.00
2018-07-15T09:45:50.516Z,12488.00
2018-07-15T09:46:50.582Z,12644.00
2018-07-15T09:47:50.650Z,12832.00
2018-07-15T09:48:50.715Z,13000.00
2018-07-15T09:49:50.784Z,13136.00
2018-07-15T09:50:50.850Z,13260.00
2018-07-15T09:51:50.917Z,13324.00
2018-07-15T09:52:50.982Z,13348.00
2018-07-15T09:53:51.049Z,13368.00
2018-07-15T09:54:51.118Z,13404.00
2018-07-15T09:55:51.186Z,13444.00
2018-07-15T09:56:51.252Z,13456.00
2018-07-15T09:57:51.318Z,13448.00
2018-07-15T09:58:51.386Z,13480.00
2018-07-15T09:59:51.452Z,13560.00
2018-07-15T10:00:51.519Z,13648.00
2018-07-15T10:01:51.586Z,13788.00
2018-07-15T10:02:51.655Z,13916.00
2018-07-15T10:03:51.722Z,14044.00
2018-07-15T10:04:51.790Z,14216.00
2018-07-15T10:05:51.858Z,14348.00
2018-07-15T10:06:51.923Z,14488.00
2018-07-15T10:07:51.992Z,14644.00
2018-07-15T10:08:52.057Z,14884.00
2018-07-15T10:09:52.126Z,15252.00
2018-07-15T10:10:52.195Z,15760.00
2018-07-15T10:11:52.263Z,16728.00
2018-07-15T10:12:52.329Z,25536.00
2018-07-15T10:13:52.398Z,49824.00
2018-07-15T10:14:52.472Z,64096.00
2018-07-15T10:15:52.536Z,66528.00
2018-07-15T10:16:52.604Z,67552.00
2018-07-15T10:17:52.673Z,68800.00
2018-07-15T10:18:52.799Z,68640.00
2018-07-15T10:19:52.814Z,68096.00
2018-07-15T10:20:52.884Z,68800.00
2018-07-15T10:21:52.953Z,68704.00
2018-07-15T10:22:53.024Z,69408.00
2018-07-15T10:23:53.094Z,69152.00
2018-07-15T10:24:53.166Z,69472.00
2018-07-15T10:25:53.236Z,69696.00
2018-07-15T10:26:53.307Z,70592.00
2018-07-15T10:27:53.381Z,70208.00
2018-07-15T10:28:53.456Z,70560.00
2018-07-15T10:29:53.525Z,71136.00
2018-07-15T10:30:53.597Z,70592.00
2018-07-15T10:31:53.670Z,70176.00
2018-07-15T10:32:53.743Z,70304.00
2018-07-15T10:33:53.815Z,70688.00
2018-07-15T10:34:53.889Z,70560.00
2018-07-15T10:35:53.964Z,70624.00
2018-07-15T10:36:54.035Z,70336.00
2018-07-15T10:37:54.109Z,70944.00
2018-07-15T10:38:54.187Z,70112.00
2018-07-15T10:39:54.257Z,70976.00
2018-07-15T10:40:54.331Z,70240.00
2018-07-15T10:41:54.406Z,70144.00
2018-07-15T10:42:54.480Z,70304.00
2018-07-15T10:43:54.555Z,69632.00
2018-07-15T10:44:54.631Z,68992.00
2018-07-15T10:45:54.708Z,67904.00
2018-07-15T10:46:54.780Z,67584.00
2018-07-15T10:47:54.856Z,67456.00
2018-07-15T10:48:54.931Z,67360.00
2018-07-15T10:49:55.007Z,68064.00
2018-07-15T10:50:55.082Z,68384.00
2018-07-15T10:51:55.157Z,67776.00
2018-07-15T10:52:55.298Z,68000.00
2018-07-15T10:53:55.308Z,66784.00
2018-07-15T10:54:55.384Z,66272.00
2018-07-15T10:55:55.460Z,66208.00
2018-07-15T10:56:55.535Z,65792.00
2018-07-15T10:57:55.610Z,65824.00
2018-07-15T10:58:55.687Z,64960.00
2018-07-15T10:59:55.764Z,64928.00
2018-07-15T11:00:55.847Z,65344.00
2018-07-15T11:01:55.916Z,64224.00
2018-07-15T11:02:55.990Z,64064.00
2018-07-15T11:03:56.066Z,62560.00
2018-07-15T11:04:56.142Z,62272.00
2018-07-15T11:05:56.218Z,60960.00
2018-07-15T11:06:56.294Z,61440.00
2018-07-15T11:07:56.372Z,60704.00
2018-07-15T11:08:56.448Z,60512.00
2018-07-15T11:09:56.524Z,59264.00
2018-07-15T11:10:56.600Z,58560.00
2018-07-15T11:11:56.676Z,57632.00
2018-07-15T11:12:56.750Z,57024.00
2018-07-15T11:13:56.828Z,55456.00
2018-07-15T11:14:56.902Z,55008.00
2018-07-15T11:15:57.075Z,54080.00
2018-07-15T11:16:57.065Z,54080.00
2018-07-15T11:17:57.129Z,53152.00
2018-07-15T11:18:57.205Z,52768.00
2018-07-15T11:19:57.281Z,51456.00
2018-07-15T11:20:57.358Z,51136.00
2018-07-15T11:21:57.432Z,50624.00
2018-07-15T11:22:57.508Z,50016.00
2018-07-15T11:23:57.584Z,49920.00
2018-07-15T11:24:57.660Z,49760.00
2018-07-15T11:25:57.741Z,49216.00
2018-07-15T11:26:57.811Z,48768.00
2018-07-15T11:27:57.887Z,48544.00
2018-07-15T11:28:57.963Z,48096.00
2018-07-15T11:29:58.038Z,47456.00
2018-07-15T11:30:58.154Z,47232.00
2018-07-15T11:31:58.192Z,46752.00
2018-07-15T11:32:58.268Z,46688.00
2018-07-15T11:33:58.345Z,46528.00
2018-07-15T11:34:58.420Z,46048.00
2018-07-15T11:35:58.498Z,46112.00
2018-07-15T11:36:58.572Z,45856.00
2018-07-15T11:37:58.651Z,45568.00
2018-07-15T11:38:58.787Z,45152.00
2018-07-15T11:39:58.803Z,44960.00
2018-07-15T11:40:58.879Z,44896.00
2018-07-15T11:41:58.957Z,44960.00
2018-07-15T11:42:59.032Z,44960.00
2018-07-15T11:43:59.108Z,44384.00
2018-07-15T11:44:59.185Z,44416.00
2018-07-15T11:45:59.261Z,44800.00
2018-07-15T11:46:59.339Z,44544.00
2018-07-15T11:47:59.418Z,44288.00
2018-07-15T11:48:59.495Z,44512.00
2018-07-15T11:49:59.568Z,44800.00
2018-07-15T11:50:59.647Z,44864.00
2018-07-15T11:51:59.722Z,45056.00
2018-07-15T11:52:59.799Z,45024.00
2018-07-15T11:53:59.877Z,44864.00
2018-07-15T11:54:59.953Z,45248.00
2018-07-15T11:56:00.032Z,45344.00
2018-07-15T11:57:00.110Z,45536.00
2018-07-15T11:58:00.184Z,46048.00
2018-07-15T11:59:00.262Z,46464.00
2018-07-15T12:00:00.338Z,46944.00
2018-07-15T12:01:00.419Z,47328.00
2018-07-15T12:02:00.557Z,48384.00
2018-07-15T12:03:00.570Z,49504.00
2018-07-15T12:04:00.706Z,50848.00
2018-07-15T12:05:00.724Z,52896.00
2018-07-15T12:06:00.802Z,55488.00
2018-07-15T12:07:00.880Z,58816.00
2018-07-15T12:08:00.957Z,62912.00
2018-07-15T12:09:01.035Z,68288.00
2018-07-15T12:10:01.110Z,75520.00
2018-07-15T12:11:01.201Z,82272.00
2018-07-15T12:12:01.266Z,88448.00
2018-07-15T12:13:01.343Z,94784.00
2018-07-15T12:14:01.420Z,104160.00
2018-07-15T12:15:01.500Z,108384.00
2018-07-15T12:16:01.575Z,111872.00
2018-07-15T12:17:01.655Z,112544.00
2018-07-15T12:18:01.731Z,112576.00